sensor_id;sensor_type;location;lat;lon;timestamp;P1;durP1;ratioP1;P2;durP2;ratioP2
19456;SDS011;9867;48.094;11.478;2023-05-29T00:01:08;7.83;;;6.60;;
19456;SDS011;9867;48.094;11.478;2023-05-29T00:03:36;10.90;;;7.23;;
19456;SDS011;9867;48.094;11.478;2023-05-29T00:06:04;10.03;;;6.80;;
19456;SDS011;9867;48.094;11.478;2023-05-29T00:08:33;8.70;;;6.87;;
19456;SDS011;9867;48.094;11.478;2023-05-29T00:11:01;9.77;;;6.23;;
19456;SDS011;9867;48.094;11.478;2023-05-29T00:13:29;9.97;;;6.30;;
19456;SDS011;9867;48.094;11.478;2023-05-29T00:15:59;7.03;;;6.33;;
19456;SDS011;9867;48.094;11.478;2023-05-29T00:18:27;8.70;;;7.13;;
19456;SDS011;9867;48.094;11.478;2023-05-29T00:20:55;6.93;;;6.23;;
19456;SDS011;9867;48.094;11.478;2023-05-29T00:23:23;7.37;;;6.50;;
19456;SDS011;9867;48.094;11.478;2023-05-29T00:25:51;7.77;;;6.90;;
19456;SDS011;9867;48.094;11.478;2023-05-29T00:28:19;10.37;;;7.00;;
19456;SDS011;9867;48.094;11.478;2023-05-29T00:30:47;9.37;;;7.17;;
19456;SDS011;9867;48.094;11.478;2023-05-29T00:33:16;8.73;;;6.43;;
19456;SDS011;9867;48.094;11.478;2023-05-29T00:35:45;8.23;;;6.63;;
19456;SDS011;9867;48.094;11.478;2023-05-29T00:38:13;8.07;;;7.27;;
19456;SDS011;9867;48.094;11.478;2023-05-29T00:40:41;7.90;;;7.10;;
19456;SDS011;9867;48.094;11.478;2023-05-29T00:43:08;7.63;;;6.40;;
19456;SDS011;9867;48.094;11.478;2023-05-29T00:45:36;7.30;;;6.47;;
19456;SDS011;9867;48.094;11.478;2023-05-29T00:48:04;8.77;;;6.70;;
19456;SDS011;9867;48.094;11.478;2023-05-29T00:50:36;7.53;;;6.77;;
19456;SDS011;9867;48.094;11.478;2023-05-29T00:53:04;8.43;;;6.90;;
19456;SDS011;9867;48.094;11.478;2023-05-29T00:55:35;9.50;;;6.57;;
19456;SDS011;9867;48.094;11.478;2023-05-29T00:58:03;8.57;;;6.93;;
19456;SDS011;9867;48.094;11.478;2023-05-29T01:00:32;7.80;;;7.00;;
19456;SDS011;9867;48.094;11.478;2023-05-29T01:03:02;8.40;;;6.83;;
19456;SDS011;9867;48.094;11.478;2023-05-29T01:05:33;10.00;;;7.00;;
19456;SDS011;9867;48.094;11.478;2023-05-29T01:08:03;8.00;;;6.67;;
19456;SDS011;9867;48.094;11.478;2023-05-29T01:10:31;7.40;;;6.60;;
19456;SDS011;9867;48.094;11.478;2023-05-29T01:12:59;9.13;;;6.53;;
19456;SDS011;9867;48.094;11.478;2023-05-29T01:15:35;7.73;;;6.77;;
19456;SDS011;9867;48.094;11.478;2023-05-29T01:18:12;10.33;;;7.37;;
19456;SDS011;9867;48.094;11.478;2023-05-29T01:20:48;8.00;;;7.20;;
19456;SDS011;9867;48.094;11.478;2023-05-29T01:23:34;10.10;;;6.90;;
19456;SDS011;9867;48.094;11.478;2023-05-29T01:26:16;9.20;;;7.10;;
19456;SDS011;9867;48.094;11.478;2023-05-29T01:28:53;9.77;;;6.77;;
19456;SDS011;9867;48.094;11.478;2023-05-29T01:31:25;9.30;;;6.73;;
19456;SDS011;9867;48.094;11.478;2023-05-29T01:33:54;7.73;;;6.33;;
19456;SDS011;9867;48.094;11.478;2023-05-29T01:36:24;7.70;;;6.60;;
19456;SDS011;9867;48.094;11.478;2023-05-29T01:38:53;7.40;;;6.70;;
19456;SDS011;9867;48.094;11.478;2023-05-29T01:41:23;7.70;;;6.20;;
19456;SDS011;9867;48.094;11.478;2023-05-29T01:43:54;8.67;;;6.60;;
19456;SDS011;9867;48.094;11.478;2023-05-29T01:46:25;7.63;;;6.83;;
19456;SDS011;9867;48.094;11.478;2023-05-29T01:48:53;7.43;;;6.47;;
19456;SDS011;9867;48.094;11.478;2023-05-29T01:51:22;8.60;;;6.77;;
19456;SDS011;9867;48.094;11.478;2023-05-29T01:53:50;7.60;;;6.83;;
19456;SDS011;9867;48.094;11.478;2023-05-29T01:56:18;8.57;;;6.53;;
19456;SDS011;9867;48.094;11.478;2023-05-29T01:58:47;6.97;;;6.13;;
19456;SDS011;9867;48.094;11.478;2023-05-29T02:01:18;7.63;;;6.63;;
19456;SDS011;9867;48.094;11.478;2023-05-29T02:03:47;7.77;;;6.97;;
19456;SDS011;9867;48.094;11.478;2023-05-29T02:06:15;6.60;;;5.90;;
19456;SDS011;9867;48.094;11.478;2023-05-29T02:08:43;7.77;;;6.20;;
19456;SDS011;9867;48.094;11.478;2023-05-29T02:11:11;7.13;;;6.43;;
19456;SDS011;9867;48.094;11.478;2023-05-29T02:13:39;6.87;;;6.20;;
19456;SDS011;9867;48.094;11.478;2023-05-29T02:16:07;7.30;;;6.60;;
19456;SDS011;9867;48.094;11.478;2023-05-29T02:18:36;7.20;;;6.50;;
19456;SDS011;9867;48.094;11.478;2023-05-29T02:21:06;7.40;;;6.70;;
19456;SDS011;9867;48.094;11.478;2023-05-29T02:23:33;7.67;;;6.93;;
19456;SDS011;9867;48.094;11.478;2023-05-29T02:26:01;7.13;;;6.43;;
19456;SDS011;9867;48.094;11.478;2023-05-29T02:28:29;8.60;;;6.90;;
19456;SDS011;9867;48.094;11.478;2023-05-29T02:30:57;7.33;;;6.53;;
19456;SDS011;9867;48.094;11.478;2023-05-29T02:33:25;8.27;;;6.60;;
19456;SDS011;9867;48.094;11.478;2023-05-29T02:35:55;8.03;;;6.47;;
19456;SDS011;9867;48.094;11.478;2023-05-29T02:38:23;9.27;;;6.83;;
19456;SDS011;9867;48.094;11.478;2023-05-29T02:40:51;8.03;;;7.23;;
19456;SDS011;9867;48.094;11.478;2023-05-29T02:43:21;8.73;;;7.07;;
19456;SDS011;9867;48.094;11.478;2023-05-29T02:45:49;8.17;;;6.73;;
19456;SDS011;9867;48.094;11.478;2023-05-29T02:48:17;9.10;;;6.53;;
19456;SDS011;9867;48.094;11.478;2023-05-29T02:50:45;6.63;;;6.03;;
19456;SDS011;9867;48.094;11.478;2023-05-29T02:53:14;9.60;;;6.83;;
19456;SDS011;9867;48.094;11.478;2023-05-29T02:55:44;7.43;;;6.37;;
19456;SDS011;9867;48.094;11.478;2023-05-29T02:58:11;9.13;;;6.77;;
19456;SDS011;9867;48.094;11.478;2023-05-29T03:00:39;8.80;;;6.77;;
19456;SDS011;9867;48.094;11.478;2023-05-29T03:03:07;7.23;;;6.53;;
19456;SDS011;9867;48.094;11.478;2023-05-29T03:05:38;10.63;;;6.83;;
19456;SDS011;9867;48.094;11.478;2023-05-29T03:08:05;7.77;;;6.77;;
19456;SDS011;9867;48.094;11.478;2023-05-29T03:10:35;8.10;;;6.97;;
19456;SDS011;9867;48.094;11.478;2023-05-29T03:13:03;6.97;;;6.37;;
19456;SDS011;9867;48.094;11.478;2023-05-29T03:15:32;7.73;;;6.93;;
19456;SDS011;9867;48.094;11.478;2023-05-29T03:18:00;7.53;;;6.63;;
19456;SDS011;9867;48.094;11.478;2023-05-29T03:20:29;8.07;;;6.53;;
19456;SDS011;9867;48.094;11.478;2023-05-29T03:22:59;8.83;;;6.57;;
19456;SDS011;9867;48.094;11.478;2023-05-29T03:25:28;8.87;;;6.70;;
19456;SDS011;9867;48.094;11.478;2023-05-29T03:27:57;7.10;;;6.40;;
19456;SDS011;9867;48.094;11.478;2023-05-29T03:30:26;7.90;;;6.67;;
19456;SDS011;9867;48.094;11.478;2023-05-29T03:32:54;8.47;;;6.87;;
19456;SDS011;9867;48.094;11.478;2023-05-29T03:35:34;7.87;;;6.63;;
19456;SDS011;9867;48.094;11.478;2023-05-29T03:38:02;7.43;;;6.73;;
19456;SDS011;9867;48.094;11.478;2023-05-29T03:40:30;7.10;;;6.13;;
19456;SDS011;9867;48.094;11.478;2023-05-29T03:42:59;7.93;;;6.40;;
19456;SDS011;9867;48.094;11.478;2023-05-29T03:45:27;7.90;;;6.53;;
19456;SDS011;9867;48.094;11.478;2023-05-29T03:47:55;7.27;;;6.50;;
19456;SDS011;9867;48.094;11.478;2023-05-29T03:50:23;7.30;;;6.50;;
19456;SDS011;9867;48.094;11.478;2023-05-29T03:52:52;7.40;;;6.67;;
19456;SDS011;9867;48.094;11.478;2023-05-29T03:55:21;6.97;;;6.27;;
19456;SDS011;9867;48.094;11.478;2023-05-29T03:57:49;7.37;;;6.20;;
19456;SDS011;9867;48.094;11.478;2023-05-29T04:00:18;7.67;;;6.70;;
19456;SDS011;9867;48.094;11.478;2023-05-29T04:02:48;6.80;;;6.03;;
19456;SDS011;9867;48.094;11.478;2023-05-29T04:05:18;7.67;;;6.30;;
19456;SDS011;9867;48.094;11.478;2023-05-29T04:07:46;6.47;;;5.87;;
19456;SDS011;9867;48.094;11.478;2023-05-29T04:10:14;7.77;;;6.53;;
19456;SDS011;9867;48.094;11.478;2023-05-29T04:12:42;8.80;;;6.30;;
19456;SDS011;9867;48.094;11.478;2023-05-29T04:15:10;6.77;;;6.07;;
19456;SDS011;9867;48.094;11.478;2023-05-29T04:17:39;8.67;;;6.23;;
19456;SDS011;9867;48.094;11.478;2023-05-29T04:20:08;9.03;;;6.70;;
19456;SDS011;9867;48.094;11.478;2023-05-29T04:22:36;7.00;;;6.30;;
19456;SDS011;9867;48.094;11.478;2023-05-29T04:25:05;6.80;;;6.10;;
19456;SDS011;9867;48.094;11.478;2023-05-29T04:27:33;7.30;;;6.53;;
19456;SDS011;9867;48.094;11.478;2023-05-29T04:30:07;7.87;;;6.77;;
19456;SDS011;9867;48.094;11.478;2023-05-29T04:32:44;8.90;;;6.23;;
19456;SDS011;9867;48.094;11.478;2023-05-29T04:35:13;7.17;;;6.33;;
19456;SDS011;9867;48.094;11.478;2023-05-29T04:37:50;9.03;;;6.47;;
19456;SDS011;9867;48.094;11.478;2023-05-29T04:40:19;7.77;;;6.60;;
19456;SDS011;9867;48.094;11.478;2023-05-29T04:42:49;8.33;;;6.17;;
19456;SDS011;9867;48.094;11.478;2023-05-29T04:45:19;6.97;;;6.27;;
19456;SDS011;9867;48.094;11.478;2023-05-29T04:47:49;7.67;;;6.57;;
19456;SDS011;9867;48.094;11.478;2023-05-29T04:50:19;8.63;;;6.50;;
19456;SDS011;9867;48.094;11.478;2023-05-29T04:52:47;10.80;;;6.33;;
19456;SDS011;9867;48.094;11.478;2023-05-29T04:55:15;7.43;;;6.10;;
19456;SDS011;9867;48.094;11.478;2023-05-29T04:57:43;7.77;;;6.73;;
19456;SDS011;9867;48.094;11.478;2023-05-29T05:00:11;6.87;;;6.20;;
19456;SDS011;9867;48.094;11.478;2023-05-29T05:02:43;7.03;;;5.97;;
19456;SDS011;9867;48.094;11.478;2023-05-29T05:05:14;8.43;;;6.50;;
19456;SDS011;9867;48.094;11.478;2023-05-29T05:07:42;8.00;;;6.20;;
19456;SDS011;9867;48.094;11.478;2023-05-29T05:10:10;8.17;;;6.80;;
19456;SDS011;9867;48.094;11.478;2023-05-29T05:12:39;8.10;;;6.73;;
19456;SDS011;9867;48.094;11.478;2023-05-29T05:15:09;12.17;;;7.13;;
19456;SDS011;9867;48.094;11.478;2023-05-29T05:17:37;7.80;;;6.47;;
19456;SDS011;9867;48.094;11.478;2023-05-29T05:20:05;8.07;;;7.00;;
19456;SDS011;9867;48.094;11.478;2023-05-29T05:22:37;8.30;;;7.50;;
19456;SDS011;9867;48.094;11.478;2023-05-29T05:25:05;7.40;;;6.57;;
19456;SDS011;9867;48.094;11.478;2023-05-29T05:27:33;7.80;;;6.87;;
19456;SDS011;9867;48.094;11.478;2023-05-29T05:30:02;8.30;;;6.97;;
19456;SDS011;9867;48.094;11.478;2023-05-29T05:32:30;7.77;;;6.93;;
19456;SDS011;9867;48.094;11.478;2023-05-29T05:35:04;9.43;;;6.60;;
19456;SDS011;9867;48.094;11.478;2023-05-29T05:37:34;10.63;;;7.70;;
19456;SDS011;9867;48.094;11.478;2023-05-29T05:40:04;7.57;;;6.87;;
19456;SDS011;9867;48.094;11.478;2023-05-29T05:42:37;8.77;;;7.03;;
19456;SDS011;9867;48.094;11.478;2023-05-29T05:45:09;10.97;;;7.30;;
19456;SDS011;9867;48.094;11.478;2023-05-29T05:47:37;10.40;;;8.10;;
19456;SDS011;9867;48.094;11.478;2023-05-29T05:50:07;8.93;;;8.03;;
19456;SDS011;9867;48.094;11.478;2023-05-29T05:52:36;11.57;;;7.90;;
19456;SDS011;9867;48.094;11.478;2023-05-29T05:55:06;10.17;;;7.47;;
19456;SDS011;9867;48.094;11.478;2023-05-29T05:57:37;8.80;;;7.50;;
19456;SDS011;9867;48.094;11.478;2023-05-29T06:00:06;10.90;;;7.93;;
19456;SDS011;9867;48.094;11.478;2023-05-29T06:02:41;10.57;;;7.20;;
19456;SDS011;9867;48.094;11.478;2023-05-29T06:05:18;8.83;;;7.37;;
19456;SDS011;9867;48.094;11.478;2023-05-29T06:07:46;8.90;;;7.20;;
19456;SDS011;9867;48.094;11.478;2023-05-29T06:10:15;9.77;;;7.00;;
19456;SDS011;9867;48.094;11.478;2023-05-29T06:12:43;9.57;;;7.53;;
19456;SDS011;9867;48.094;11.478;2023-05-29T06:15:19;11.07;;;7.73;;
19456;SDS011;9867;48.094;11.478;2023-05-29T06:17:47;10.47;;;7.40;;
19456;SDS011;9867;48.094;11.478;2023-05-29T06:20:16;8.17;;;7.00;;
19456;SDS011;9867;48.094;11.478;2023-05-29T06:22:45;11.23;;;6.43;;
19456;SDS011;9867;48.094;11.478;2023-05-29T06:25:18;12.03;;;7.60;;
19456;SDS011;9867;48.094;11.478;2023-05-29T06:27:46;7.03;;;6.33;;
19456;SDS011;9867;48.094;11.478;2023-05-29T06:30:15;8.33;;;6.47;;
19456;SDS011;9867;48.094;11.478;2023-05-29T06:32:43;7.40;;;6.63;;
19456;SDS011;9867;48.094;11.478;2023-05-29T06:35:11;8.70;;;6.77;;
19456;SDS011;9867;48.094;11.478;2023-05-29T06:37:39;9.30;;;6.43;;
19456;SDS011;9867;48.094;11.478;2023-05-29T06:40:07;6.77;;;5.93;;
19456;SDS011;9867;48.094;11.478;2023-05-29T06:42:39;8.10;;;6.40;;
19456;SDS011;9867;48.094;11.478;2023-05-29T06:45:13;8.23;;;6.37;;
19456;SDS011;9867;48.094;11.478;2023-05-29T06:47:42;7.00;;;6.30;;
19456;SDS011;9867;48.094;11.478;2023-05-29T06:50:11;9.87;;;7.10;;
19456;SDS011;9867;48.094;11.478;2023-05-29T06:52:39;8.10;;;5.93;;
19456;SDS011;9867;48.094;11.478;2023-05-29T06:55:27;9.10;;;6.90;;
19456;SDS011;9867;48.094;11.478;2023-05-29T06:57:58;7.10;;;6.17;;
19456;SDS011;9867;48.094;11.478;2023-05-29T07:00:26;10.67;;;7.50;;
19456;SDS011;9867;48.094;11.478;2023-05-29T07:03:14;7.33;;;5.63;;
19456;SDS011;9867;48.094;11.478;2023-05-29T07:05:43;6.80;;;5.10;;
19456;SDS011;9867;48.094;11.478;2023-05-29T07:08:11;6.23;;;5.63;;
19456;SDS011;9867;48.094;11.478;2023-05-29T07:10:39;7.40;;;5.43;;
19456;SDS011;9867;48.094;11.478;2023-05-29T07:13:08;7.90;;;5.90;;
19456;SDS011;9867;48.094;11.478;2023-05-29T07:15:37;6.67;;;5.43;;
19456;SDS011;9867;48.094;11.478;2023-05-29T07:18:05;6.87;;;5.90;;
19456;SDS011;9867;48.094;11.478;2023-05-29T07:20:33;7.53;;;5.47;;
19456;SDS011;9867;48.094;11.478;2023-05-29T07:23:01;6.70;;;5.77;;
19456;SDS011;9867;48.094;11.478;2023-05-29T07:25:31;7.33;;;5.30;;
19456;SDS011;9867;48.094;11.478;2023-05-29T07:27:59;7.33;;;6.03;;
19456;SDS011;9867;48.094;11.478;2023-05-29T07:30:48;5.97;;;5.40;;
19456;SDS011;9867;48.094;11.478;2023-05-29T07:33:17;6.77;;;5.47;;
19456;SDS011;9867;48.094;11.478;2023-05-29T07:35:45;7.53;;;5.70;;
19456;SDS011;9867;48.094;11.478;2023-05-29T07:38:13;9.10;;;5.30;;
19456;SDS011;9867;48.094;11.478;2023-05-29T07:40:42;6.80;;;5.30;;
19456;SDS011;9867;48.094;11.478;2023-05-29T07:43:33;6.03;;;5.43;;
19456;SDS011;9867;48.094;11.478;2023-05-29T07:46:06;10.73;;;5.23;;
19456;SDS011;9867;48.094;11.478;2023-05-29T07:48:37;9.93;;;5.67;;
19456;SDS011;9867;48.094;11.478;2023-05-29T07:51:06;7.03;;;5.50;;
19456;SDS011;9867;48.094;11.478;2023-05-29T07:53:38;6.63;;;5.37;;
19456;SDS011;9867;48.094;11.478;2023-05-29T07:56:06;6.83;;;5.47;;
19456;SDS011;9867;48.094;11.478;2023-05-29T07:58:34;6.50;;;4.97;;
19456;SDS011;9867;48.094;11.478;2023-05-29T08:01:02;7.20;;;5.73;;
19456;SDS011;9867;48.094;11.478;2023-05-29T08:03:33;6.20;;;5.47;;
19456;SDS011;9867;48.094;11.478;2023-05-29T08:06:18;6.87;;;5.90;;
19456;SDS011;9867;48.094;11.478;2023-05-29T08:08:46;7.97;;;5.20;;
19456;SDS011;9867;48.094;11.478;2023-05-29T08:11:15;6.47;;;5.30;;
19456;SDS011;9867;48.094;11.478;2023-05-29T08:13:43;7.70;;;5.40;;
19456;SDS011;9867;48.094;11.478;2023-05-29T08:16:11;6.47;;;5.63;;
19456;SDS011;9867;48.094;11.478;2023-05-29T08:18:43;8.50;;;6.13;;
19456;SDS011;9867;48.094;11.478;2023-05-29T08:21:11;9.07;;;5.57;;
19456;SDS011;9867;48.094;11.478;2023-05-29T08:23:40;6.17;;;5.20;;
19456;SDS011;9867;48.094;11.478;2023-05-29T08:26:07;6.47;;;5.30;;
19456;SDS011;9867;48.094;11.478;2023-05-29T08:28:35;7.93;;;6.10;;
19456;SDS011;9867;48.094;11.478;2023-05-29T08:31:06;7.10;;;5.63;;
19456;SDS011;9867;48.094;11.478;2023-05-29T08:33:34;7.67;;;5.70;;
19456;SDS011;9867;48.094;11.478;2023-05-29T08:36:04;7.27;;;5.33;;
19456;SDS011;9867;48.094;11.478;2023-05-29T08:38:32;6.87;;;5.40;;
19456;SDS011;9867;48.094;11.478;2023-05-29T08:41:00;9.20;;;5.80;;
19456;SDS011;9867;48.094;11.478;2023-05-29T08:43:30;6.97;;;5.30;;
19456;SDS011;9867;48.094;11.478;2023-05-29T08:45:59;13.07;;;5.47;;
19456;SDS011;9867;48.094;11.478;2023-05-29T08:48:28;8.00;;;5.70;;
19456;SDS011;9867;48.094;11.478;2023-05-29T08:50:58;8.63;;;5.20;;
19456;SDS011;9867;48.094;11.478;2023-05-29T08:53:31;7.03;;;5.43;;
19456;SDS011;9867;48.094;11.478;2023-05-29T08:55:59;6.57;;;5.43;;
19456;SDS011;9867;48.094;11.478;2023-05-29T08:58:30;10.60;;;5.83;;
19456;SDS011;9867;48.094;11.478;2023-05-29T09:00:58;8.80;;;5.40;;
19456;SDS011;9867;48.094;11.478;2023-05-29T09:03:27;8.37;;;6.27;;
19456;SDS011;9867;48.094;11.478;2023-05-29T09:05:57;6.40;;;5.77;;
19456;SDS011;9867;48.094;11.478;2023-05-29T09:08:25;7.90;;;5.80;;
19456;SDS011;9867;48.094;11.478;2023-05-29T09:10:56;7.27;;;5.60;;
19456;SDS011;9867;48.094;11.478;2023-05-29T09:13:24;10.93;;;5.77;;
19456;SDS011;9867;48.094;11.478;2023-05-29T09:15:57;7.63;;;6.07;;
19456;SDS011;9867;48.094;11.478;2023-05-29T09:18:28;9.90;;;5.80;;
19456;SDS011;9867;48.094;11.478;2023-05-29T09:20:57;6.03;;;5.20;;
19456;SDS011;9867;48.094;11.478;2023-05-29T09:23:28;8.90;;;5.50;;
19456;SDS011;9867;48.094;11.478;2023-05-29T09:25:57;8.30;;;5.30;;
19456;SDS011;9867;48.094;11.478;2023-05-29T09:28:25;5.73;;;5.13;;
19456;SDS011;9867;48.094;11.478;2023-05-29T09:30:54;6.97;;;5.27;;
19456;SDS011;9867;48.094;11.478;2023-05-29T09:33:24;8.87;;;5.23;;
19456;SDS011;9867;48.094;11.478;2023-05-29T09:35:52;6.63;;;5.30;;
19456;SDS011;9867;48.094;11.478;2023-05-29T09:38:20;5.63;;;5.13;;
19456;SDS011;9867;48.094;11.478;2023-05-29T09:41:10;7.77;;;5.10;;
19456;SDS011;9867;48.094;11.478;2023-05-29T09:43:38;6.00;;;4.83;;
19456;SDS011;9867;48.094;11.478;2023-05-29T09:46:07;8.47;;;5.00;;
19456;SDS011;9867;48.094;11.478;2023-05-29T09:48:35;7.43;;;5.30;;
19456;SDS011;9867;48.094;11.478;2023-05-29T09:51:03;5.73;;;4.80;;
19456;SDS011;9867;48.094;11.478;2023-05-29T09:53:31;9.77;;;5.07;;
19456;SDS011;9867;48.094;11.478;2023-05-29T09:55:59;6.03;;;4.80;;
19456;SDS011;9867;48.094;11.478;2023-05-29T09:58:28;6.33;;;5.10;;
19456;SDS011;9867;48.094;11.478;2023-05-29T10:00:59;6.30;;;4.97;;
19456;SDS011;9867;48.094;11.478;2023-05-29T10:03:27;6.50;;;5.20;;
19456;SDS011;9867;48.094;11.478;2023-05-29T10:06:01;5.70;;;4.70;;
19456;SDS011;9867;48.094;11.478;2023-05-29T10:08:32;6.03;;;4.60;;
19456;SDS011;9867;48.094;11.478;2023-05-29T10:11:05;9.83;;;4.43;;
19456;SDS011;9867;48.094;11.478;2023-05-29T10:13:38;6.60;;;4.63;;
19456;SDS011;9867;48.094;11.478;2023-05-29T10:16:07;7.10;;;4.80;;
19456;SDS011;9867;48.094;11.478;2023-05-29T10:18:39;6.37;;;4.53;;
19456;SDS011;9867;48.094;11.478;2023-05-29T10:21:12;5.63;;;4.67;;
19456;SDS011;9867;48.094;11.478;2023-05-29T10:23:42;7.27;;;4.90;;
19456;SDS011;9867;48.094;11.478;2023-05-29T10:26:14;6.40;;;4.47;;
19456;SDS011;9867;48.094;11.478;2023-05-29T10:28:52;5.70;;;4.90;;
19456;SDS011;9867;48.094;11.478;2023-05-29T10:31:28;6.83;;;4.47;;
19456;SDS011;9867;48.094;11.478;2023-05-29T10:34:02;7.40;;;5.10;;
19456;SDS011;9867;48.094;11.478;2023-05-29T10:36:40;4.80;;;4.37;;
19456;SDS011;9867;48.094;11.478;2023-05-29T10:39:11;6.13;;;4.77;;
19456;SDS011;9867;48.094;11.478;2023-05-29T10:41:39;6.07;;;4.90;;
19456;SDS011;9867;48.094;11.478;2023-05-29T10:47:10;6.63;;;4.83;;
19456;SDS011;9867;48.094;11.478;2023-05-29T10:49:39;5.57;;;4.77;;
19456;SDS011;9867;48.094;11.478;2023-05-29T10:52:16;8.17;;;4.67;;
19456;SDS011;9867;48.094;11.478;2023-05-29T10:54:51;6.47;;;4.53;;
19456;SDS011;9867;48.094;11.478;2023-05-29T10:57:20;6.67;;;5.00;;
19456;SDS011;9867;48.094;11.478;2023-05-29T11:00:01;6.50;;;4.70;;
19456;SDS011;9867;48.094;11.478;2023-05-29T11:02:35;5.23;;;4.73;;
19456;SDS011;9867;48.094;11.478;2023-05-29T11:07:52;7.60;;;4.60;;
19456;SDS011;9867;48.094;11.478;2023-05-29T11:10:41;6.43;;;4.47;;
19456;SDS011;9867;48.094;11.478;2023-05-29T11:13:12;5.20;;;4.70;;
19456;SDS011;9867;48.094;11.478;2023-05-29T11:16:05;7.00;;;4.40;;
19456;SDS011;9867;48.094;11.478;2023-05-29T11:18:39;5.97;;;4.40;;
19456;SDS011;9867;48.094;11.478;2023-05-29T11:21:15;6.20;;;5.10;;
19456;SDS011;9867;48.094;11.478;2023-05-29T11:23:53;6.67;;;4.53;;
19456;SDS011;9867;48.094;11.478;2023-05-29T11:26:22;5.23;;;4.33;;
19456;SDS011;9867;48.094;11.478;2023-05-29T11:28:57;4.80;;;4.27;;
19456;SDS011;9867;48.094;11.478;2023-05-29T11:31:31;8.30;;;4.83;;
19456;SDS011;9867;48.094;11.478;2023-05-29T11:34:03;8.13;;;4.43;;
19456;SDS011;9867;48.094;11.478;2023-05-29T11:36:32;8.60;;;4.80;;
19456;SDS011;9867;48.094;11.478;2023-05-29T11:39:01;6.60;;;4.40;;
19456;SDS011;9867;48.094;11.478;2023-05-29T11:41:30;5.03;;;4.53;;
19456;SDS011;9867;48.094;11.478;2023-05-29T11:43:58;7.27;;;5.00;;
19456;SDS011;9867;48.094;11.478;2023-05-29T11:46:29;4.97;;;4.47;;
19456;SDS011;9867;48.094;11.478;2023-05-29T11:48:59;6.37;;;5.00;;
19456;SDS011;9867;48.094;11.478;2023-05-29T11:51:28;6.30;;;4.50;;
19456;SDS011;9867;48.094;11.478;2023-05-29T11:53:59;6.03;;;4.10;;
19456;SDS011;9867;48.094;11.478;2023-05-29T11:56:29;5.13;;;4.60;;
19456;SDS011;9867;48.094;11.478;2023-05-29T11:58:57;6.93;;;4.13;;
19456;SDS011;9867;48.094;11.478;2023-05-29T12:01:26;5.00;;;4.50;;
19456;SDS011;9867;48.094;11.478;2023-05-29T12:03:56;5.03;;;4.43;;
19456;SDS011;9867;48.094;11.478;2023-05-29T12:06:31;4.70;;;4.30;;
19456;SDS011;9867;48.094;11.478;2023-05-29T12:09:04;4.80;;;4.40;;
19456;SDS011;9867;48.094;11.478;2023-05-29T12:11:35;5.40;;;4.73;;
19456;SDS011;9867;48.094;11.478;2023-05-29T12:14:05;5.77;;;3.93;;
19456;SDS011;9867;48.094;11.478;2023-05-29T12:16:33;4.77;;;4.30;;
19456;SDS011;9867;48.094;11.478;2023-05-29T12:19:03;7.00;;;4.50;;
19456;SDS011;9867;48.094;11.478;2023-05-29T12:21:35;4.87;;;4.40;;
19456;SDS011;9867;48.094;11.478;2023-05-29T12:24:04;6.07;;;4.30;;
19456;SDS011;9867;48.094;11.478;2023-05-29T12:26:41;5.00;;;4.57;;
19456;SDS011;9867;48.094;11.478;2023-05-29T12:29:13;4.93;;;4.33;;
19456;SDS011;9867;48.094;11.478;2023-05-29T12:31:45;6.20;;;3.90;;
19456;SDS011;9867;48.094;11.478;2023-05-29T12:34:14;6.70;;;5.13;;
19456;SDS011;9867;48.094;11.478;2023-05-29T12:36:44;6.70;;;4.40;;
19456;SDS011;9867;48.094;11.478;2023-05-29T12:39:12;6.13;;;4.20;;
19456;SDS011;9867;48.094;11.478;2023-05-29T12:41:40;5.27;;;4.00;;
19456;SDS011;9867;48.094;11.478;2023-05-29T12:44:12;4.90;;;3.83;;
19456;SDS011;9867;48.094;11.478;2023-05-29T12:46:41;5.27;;;4.37;;
19456;SDS011;9867;48.094;11.478;2023-05-29T12:49:15;6.30;;;4.53;;
19456;SDS011;9867;48.094;11.478;2023-05-29T12:51:45;5.03;;;4.20;;
19456;SDS011;9867;48.094;11.478;2023-05-29T12:54:14;6.07;;;4.20;;
19456;SDS011;9867;48.094;11.478;2023-05-29T12:56:43;4.80;;;4.00;;
19456;SDS011;9867;48.094;11.478;2023-05-29T12:59:12;5.03;;;4.30;;
19456;SDS011;9867;48.094;11.478;2023-05-29T13:01:43;5.13;;;4.00;;
19456;SDS011;9867;48.094;11.478;2023-05-29T13:04:11;5.70;;;4.00;;
19456;SDS011;9867;48.094;11.478;2023-05-29T13:06:41;4.93;;;3.87;;
19456;SDS011;9867;48.094;11.478;2023-05-29T13:09:09;5.47;;;3.90;;
19456;SDS011;9867;48.094;11.478;2023-05-29T13:11:40;6.00;;;4.00;;
19456;SDS011;9867;48.094;11.478;2023-05-29T13:14:08;4.63;;;4.10;;
19456;SDS011;9867;48.094;11.478;2023-05-29T13:16:36;6.40;;;4.07;;
19456;SDS011;9867;48.094;11.478;2023-05-29T13:19:04;5.50;;;4.10;;
19456;SDS011;9867;48.094;11.478;2023-05-29T13:21:32;4.53;;;4.03;;
19456;SDS011;9867;48.094;11.478;2023-05-29T13:24:03;6.23;;;4.10;;
19456;SDS011;9867;48.094;11.478;2023-05-29T13:26:31;5.73;;;4.17;;
19456;SDS011;9867;48.094;11.478;2023-05-29T13:28:59;5.77;;;4.20;;
19456;SDS011;9867;48.094;11.478;2023-05-29T13:31:29;5.63;;;4.47;;
19456;SDS011;9867;48.094;11.478;2023-05-29T13:33:57;4.57;;;3.60;;
19456;SDS011;9867;48.094;11.478;2023-05-29T13:36:27;5.83;;;4.13;;
19456;SDS011;9867;48.094;11.478;2023-05-29T13:38:55;5.03;;;4.03;;
19456;SDS011;9867;48.094;11.478;2023-05-29T13:41:25;4.70;;;4.30;;
19456;SDS011;9867;48.094;11.478;2023-05-29T13:43:53;8.17;;;4.23;;
19456;SDS011;9867;48.094;11.478;2023-05-29T13:46:21;4.33;;;3.93;;
19456;SDS011;9867;48.094;11.478;2023-05-29T13:48:56;4.97;;;4.07;;
19456;SDS011;9867;48.094;11.478;2023-05-29T13:51:24;4.37;;;3.70;;
19456;SDS011;9867;48.094;11.478;2023-05-29T13:53:52;5.20;;;4.40;;
19456;SDS011;9867;48.094;11.478;2023-05-29T13:56:21;5.07;;;4.20;;
19456;SDS011;9867;48.094;11.478;2023-05-29T13:58:54;6.80;;;4.57;;
19456;SDS011;9867;48.094;11.478;2023-05-29T14:01:22;5.73;;;4.43;;
19456;SDS011;9867;48.094;11.478;2023-05-29T14:03:51;5.97;;;4.47;;
19456;SDS011;9867;48.094;11.478;2023-05-29T14:06:19;4.30;;;3.90;;
19456;SDS011;9867;48.094;11.478;2023-05-29T14:08:47;4.77;;;3.70;;
19456;SDS011;9867;48.094;11.478;2023-05-29T14:11:15;6.40;;;4.40;;
19456;SDS011;9867;48.094;11.478;2023-05-29T14:13:43;6.00;;;4.33;;
19456;SDS011;9867;48.094;11.478;2023-05-29T14:16:12;5.63;;;4.20;;
19456;SDS011;9867;48.094;11.478;2023-05-29T14:18:42;6.20;;;4.00;;
19456;SDS011;9867;48.094;11.478;2023-05-29T14:21:10;5.83;;;4.00;;
19456;SDS011;9867;48.094;11.478;2023-05-29T14:23:38;4.83;;;3.90;;
19456;SDS011;9867;48.094;11.478;2023-05-29T14:26:06;5.03;;;3.87;;
19456;SDS011;9867;48.094;11.478;2023-05-29T14:28:34;6.23;;;4.33;;
19456;SDS011;9867;48.094;11.478;2023-05-29T14:31:03;4.47;;;3.77;;
19456;SDS011;9867;48.094;11.478;2023-05-29T14:33:35;5.93;;;4.20;;
19456;SDS011;9867;48.094;11.478;2023-05-29T14:36:04;4.63;;;4.10;;
19456;SDS011;9867;48.094;11.478;2023-05-29T14:38:32;6.10;;;3.97;;
19456;SDS011;9867;48.094;11.478;2023-05-29T14:41:02;3.77;;;3.47;;
19456;SDS011;9867;48.094;11.478;2023-05-29T14:43:35;5.77;;;4.33;;
19456;SDS011;9867;48.094;11.478;2023-05-29T14:46:03;5.43;;;4.10;;
19456;SDS011;9867;48.094;11.478;2023-05-29T14:48:31;4.57;;;4.00;;
19456;SDS011;9867;48.094;11.478;2023-05-29T14:51:00;5.03;;;3.70;;
19456;SDS011;9867;48.094;11.478;2023-05-29T14:53:28;4.70;;;4.20;;
19456;SDS011;9867;48.094;11.478;2023-05-29T14:55:58;4.10;;;3.70;;
19456;SDS011;9867;48.094;11.478;2023-05-29T14:58:25;4.50;;;4.10;;
19456;SDS011;9867;48.094;11.478;2023-05-29T15:00:53;4.33;;;3.90;;
19456;SDS011;9867;48.094;11.478;2023-05-29T15:03:24;4.87;;;4.33;;
19456;SDS011;9867;48.094;11.478;2023-05-29T15:05:53;3.87;;;3.57;;
19456;SDS011;9867;48.094;11.478;2023-05-29T15:08:23;4.17;;;3.77;;
19456;SDS011;9867;48.094;11.478;2023-05-29T15:10:51;6.83;;;3.77;;